createdAt,value
2024-02-19T00:02:21.509Z,2.73
2024-02-19T00:04:48.409Z,1.50
2024-02-19T00:07:18.662Z,2.13
2024-02-19T00:09:46.694Z,1.50
2024-02-19T00:12:13.891Z,1.80
2024-02-19T00:14:40.694Z,1.50
2024-02-19T00:17:08.389Z,1.63
2024-02-19T00:19:35.294Z,1.97
2024-02-19T00:22:02.128Z,1.63
2024-02-19T00:24:28.878Z,1.50
2024-02-19T00:26:55.571Z,1.67
2024-02-19T00:29:22.313Z,1.67
2024-02-19T00:31:49.267Z,1.60
2024-02-19T00:34:16.288Z,1.60
2024-02-19T00:36:43.358Z,1.70
2024-02-19T00:39:10.249Z,1.90
2024-02-19T00:41:37.964Z,1.73
2024-02-19T00:44:07.331Z,1.60
2024-02-19T00:46:34.087Z,1.70
2024-02-19T00:49:00.861Z,1.73
2024-02-19T00:51:27.602Z,1.77
2024-02-19T00:53:54.335Z,2.13
2024-02-19T00:56:21.063Z,2.07
2024-02-19T00:58:47.753Z,3.27
2024-02-19T01:01:14.492Z,1.90
2024-02-19T01:03:44.428Z,2.77
2024-02-19T01:06:11.312Z,2.00
2024-02-19T01:08:38.524Z,2.17
2024-02-19T01:11:05.647Z,2.13
2024-02-19T01:13:32.404Z,2.27
2024-02-19T01:15:59.163Z,2.47
2024-02-19T01:18:25.951Z,1.87
2024-02-19T01:20:52.746Z,2.20
2024-02-19T01:23:19.424Z,2.03
2024-02-19T01:25:46.328Z,2.97
2024-02-19T01:28:13.326Z,1.87
2024-02-19T01:30:40.208Z,2.87
2024-02-19T01:33:07.488Z,2.30
2024-02-19T01:35:34.270Z,2.30
2024-02-19T01:38:01.214Z,2.70
2024-02-19T01:40:28.283Z,2.57
2024-02-19T01:43:02.383Z,2.23
2024-02-19T01:45:29.544Z,2.83
2024-02-19T01:47:56.996Z,2.20
2024-02-19T01:50:24.209Z,1.83
2024-02-19T01:52:52.111Z,2.37
2024-02-19T01:55:22.446Z,2.87
2024-02-19T01:57:50.874Z,2.57
2024-02-19T02:00:18.549Z,2.23
2024-02-19T02:02:45.526Z,2.53
2024-02-19T02:05:12.598Z,2.53
2024-02-19T02:07:39.630Z,4.33
2024-02-19T02:10:06.645Z,1.93
2024-02-19T02:12:33.419Z,2.23
2024-02-19T02:15:00.319Z,2.67
2024-02-19T02:17:27.065Z,2.57
2024-02-19T02:19:53.919Z,2.50
2024-02-19T02:22:20.792Z,2.80
2024-02-19T02:24:47.670Z,2.30
2024-02-19T02:27:14.482Z,2.40
2024-02-19T02:29:41.242Z,2.00
2024-02-19T02:32:08.028Z,2.03
2024-02-19T02:34:35.719Z,2.60
2024-02-19T02:37:05.422Z,2.50
2024-02-19T02:39:32.619Z,2.30
2024-02-19T02:41:59.408Z,2.37
2024-02-19T02:44:26.280Z,2.33
2024-02-19T02:46:53.027Z,2.23
2024-02-19T02:49:19.811Z,1.90
2024-02-19T02:51:46.602Z,2.10
2024-02-19T02:54:14.337Z,1.70
2024-02-19T02:56:41.067Z,1.80
2024-02-19T02:59:07.763Z,1.83
2024-02-19T03:01:34.646Z,1.63
2024-02-19T03:04:01.586Z,1.70
2024-02-19T03:06:28.397Z,2.07
2024-02-19T03:08:55.180Z,1.90
2024-02-19T03:11:22.913Z,1.73
2024-02-19T03:13:50.291Z,2.00
2024-02-19T03:16:18.635Z,2.10
2024-02-19T03:18:46.223Z,1.93
2024-02-19T03:21:16.452Z,1.60
2024-02-19T03:23:48.234Z,1.97
2024-02-19T03:26:20.249Z,2.47
2024-02-19T03:28:51.775Z,1.60
2024-02-19T03:31:20.060Z,1.60
2024-02-19T03:33:47.462Z,1.77
2024-02-19T03:36:14.244Z,1.70
2024-02-19T03:38:42.440Z,2.50
2024-02-19T03:41:09.169Z,2.80
2024-02-19T03:43:35.915Z,1.70
2024-02-19T03:46:05.160Z,2.37
2024-02-19T03:48:32.495Z,2.70
2024-02-19T03:50:59.313Z,2.57
2024-02-19T03:53:26.006Z,5.10
2024-02-19T03:55:52.693Z,2.13
2024-02-19T03:58:19.565Z,2.00
2024-02-19T04:00:46.537Z,1.53
2024-02-19T04:03:13.321Z,2.53
2024-02-19T04:05:40.002Z,1.90
2024-02-19T04:08:09.777Z,2.63
2024-02-19T04:10:37.006Z,2.20
2024-02-19T04:13:03.950Z,2.57
2024-02-19T04:15:30.846Z,2.80
2024-02-19T04:17:57.778Z,4.63
2024-02-19T04:20:24.560Z,2.13
2024-02-19T04:22:51.270Z,2.40
2024-02-19T04:25:18.124Z,1.87
2024-02-19T04:27:45.916Z,1.60
2024-02-19T04:30:12.681Z,1.90
2024-02-19T04:32:40.580Z,2.53
2024-02-19T04:35:07.759Z,2.10
2024-02-19T04:37:34.554Z,2.53
2024-02-19T04:40:01.658Z,1.63
2024-02-19T04:42:28.479Z,2.00
2024-02-19T04:44:55.262Z,1.90
2024-02-19T04:47:21.961Z,2.37
2024-02-19T04:49:48.781Z,2.30
2024-02-19T04:52:15.624Z,2.60
2024-02-19T04:54:42.421Z,2.70
2024-02-19T04:57:09.153Z,3.13
2024-02-19T04:59:35.845Z,2.17
2024-02-19T05:02:02.660Z,2.30
2024-02-19T05:04:29.565Z,4.07
2024-02-19T05:06:56.618Z,3.53
2024-02-19T05:09:23.404Z,2.63
2024-02-19T05:11:50.142Z,3.43
2024-02-19T05:14:16.834Z,1.80
2024-02-19T05:16:43.515Z,2.63
2024-02-19T05:19:11.018Z,3.93
2024-02-19T05:21:42.128Z,2.87
2024-02-19T05:24:13.758Z,2.73
2024-02-19T05:26:41.242Z,3.73
2024-02-19T05:29:10.924Z,2.63
2024-02-19T05:31:38.462Z,3.77
2024-02-19T05:34:05.801Z,2.77
2024-02-19T05:36:32.616Z,2.60
2024-02-19T05:38:59.621Z,2.80
2024-02-19T05:41:26.569Z,3.33
2024-02-19T05:43:53.475Z,3.47
2024-02-19T05:46:21.122Z,2.80
2024-02-19T05:48:48.040Z,3.50
2024-02-19T05:51:15.045Z,2.23
2024-02-19T05:53:41.927Z,2.30
2024-02-19T05:56:11.692Z,3.33
2024-02-19T05:58:39.145Z,5.00
2024-02-19T06:01:06.080Z,2.97
2024-02-19T06:03:34.356Z,2.47
2024-02-19T06:06:01.176Z,1.83
2024-02-19T06:08:27.969Z,3.77
2024-02-19T06:10:55.718Z,11.50
2024-02-19T06:13:22.602Z,2.27
2024-02-19T06:15:49.471Z,1.90
2024-02-19T06:18:16.734Z,3.60
2024-02-19T06:20:43.692Z,3.13
2024-02-19T06:23:10.458Z,2.63
2024-02-19T06:25:37.248Z,2.67
2024-02-19T06:28:04.224Z,4.23
2024-02-19T06:30:30.906Z,2.47
2024-02-19T06:32:57.702Z,3.30
2024-02-19T06:35:24.487Z,2.47
2024-02-19T06:37:51.249Z,3.20
2024-02-19T06:40:18.188Z,3.93
2024-02-19T06:42:45.027Z,3.77
2024-02-19T06:45:11.818Z,14.97
2024-02-19T06:47:38.612Z,2.90
2024-02-19T06:50:05.664Z,3.13
2024-02-19T06:52:32.460Z,4.43
2024-02-19T06:54:59.192Z,2.40
2024-02-19T06:57:25.962Z,2.50
2024-02-19T06:59:53.908Z,2.50
2024-02-19T07:02:21.488Z,2.10
2024-02-19T07:04:48.504Z,2.67
2024-02-19T07:07:15.455Z,3.17
2024-02-19T07:09:42.337Z,3.23
2024-02-19T07:12:09.156Z,3.20
2024-02-19T07:14:35.970Z,3.03
2024-02-19T07:17:02.688Z,1.53
2024-02-19T07:19:29.495Z,2.90
2024-02-19T07:21:56.397Z,3.33
2024-02-19T07:24:23.246Z,2.40
2024-02-19T07:26:49.984Z,2.13
2024-02-19T07:29:17.544Z,2.47
2024-02-19T07:31:44.251Z,1.30
2024-02-19T07:34:11.324Z,1.67
2024-02-19T07:36:39.166Z,1.30
2024-02-19T07:39:06.562Z,1.90
2024-02-19T07:41:33.475Z,2.97
2024-02-19T07:44:00.206Z,1.93
2024-02-19T07:46:27.041Z,3.30
2024-02-19T07:48:54.005Z,1.67
2024-02-19T07:51:20.900Z,1.70
2024-02-19T07:53:48.419Z,1.90
2024-02-19T07:56:15.184Z,2.97
2024-02-19T07:58:41.933Z,3.23
2024-02-19T08:01:08.761Z,2.80
2024-02-19T08:03:36.313Z,3.00
2024-02-19T08:06:03.176Z,1.50
2024-02-19T08:08:30.120Z,1.80
2024-02-19T08:10:56.880Z,2.30
2024-02-19T08:13:23.735Z,1.40
2024-02-19T08:15:50.599Z,1.53
2024-02-19T08:18:18.316Z,2.20
2024-02-19T08:20:45.212Z,2.73
2024-02-19T08:23:11.911Z,1.30
2024-02-19T08:25:38.772Z,2.20
2024-02-19T08:28:06.279Z,2.60
2024-02-19T08:30:33.258Z,2.57
2024-02-19T08:33:00.003Z,2.57
2024-02-19T08:35:26.891Z,2.03
2024-02-19T08:37:53.645Z,2.10
2024-02-19T08:40:20.495Z,3.67
2024-02-19T08:42:48.098Z,3.93
2024-02-19T08:45:16.246Z,2.93
2024-02-19T08:47:44.710Z,2.60
2024-02-19T08:50:11.615Z,2.33
2024-02-19T08:52:38.401Z,1.80
2024-02-19T08:55:05.466Z,3.73
2024-02-19T08:57:32.216Z,2.63
2024-02-19T08:59:58.986Z,7.27
2024-02-19T09:02:25.738Z,6.93
2024-02-19T09:04:52.596Z,3.67
2024-02-19T09:07:19.497Z,3.17
2024-02-19T09:09:46.330Z,2.10
2024-02-19T09:12:13.220Z,3.40
2024-02-19T09:14:39.906Z,2.13
2024-02-19T09:17:07.031Z,3.57
2024-02-19T09:19:33.998Z,4.77
2024-02-19T09:22:00.862Z,3.07
2024-02-19T09:24:27.617Z,3.87
2024-02-19T09:26:54.346Z,6.13
2024-02-19T09:29:21.110Z,3.03
2024-02-19T09:31:47.969Z,2.47
2024-02-19T09:34:15.348Z,3.53
2024-02-19T09:36:47.022Z,1.60
2024-02-19T09:39:13.809Z,1.77
2024-02-19T09:41:40.636Z,2.83
2024-02-19T09:44:08.283Z,4.40
2024-02-19T09:46:36.518Z,3.20
2024-02-19T09:49:05.337Z,4.30
2024-02-19T09:51:40.752Z,2.93
2024-02-19T09:54:08.853Z,3.33
2024-02-19T09:56:36.213Z,2.70
2024-02-19T09:59:04.678Z,4.73
2024-02-19T10:01:31.554Z,3.07
2024-02-19T10:03:58.441Z,5.07
2024-02-19T10:06:37.934Z,2.07
2024-02-19T10:09:12.470Z,5.27
2024-02-19T10:11:39.783Z,3.73
2024-02-19T10:14:06.973Z,3.17
2024-02-19T10:16:33.858Z,3.57
2024-02-19T10:19:07.320Z,3.10
2024-02-19T10:21:34.533Z,4.80
2024-02-19T10:24:01.389Z,2.90
2024-02-19T10:26:28.142Z,2.77
2024-02-19T10:28:55.745Z,6.20
2024-02-19T10:31:22.673Z,3.00
2024-02-19T10:33:49.864Z,5.10
2024-02-19T10:36:20.624Z,2.63
2024-02-19T10:38:48.554Z,5.80
2024-02-19T10:41:15.381Z,3.27
2024-02-19T10:43:42.113Z,5.47
2024-02-19T10:46:11.991Z,2.10
2024-02-19T10:48:39.145Z,3.57
2024-02-19T10:51:06.489Z,4.90
2024-02-19T10:53:33.509Z,3.00
2024-02-19T10:56:11.349Z,4.57
2024-02-19T10:58:38.232Z,2.50
2024-02-19T11:01:06.209Z,2.60
2024-02-19T11:03:43.434Z,4.33
2024-02-19T11:06:11.700Z,4.63
2024-02-19T11:08:42.773Z,2.27
2024-02-19T11:11:09.604Z,3.60
2024-02-19T11:13:36.885Z,3.10
2024-02-19T11:16:04.611Z,2.83
2024-02-19T11:18:32.863Z,3.70
2024-02-19T11:21:03.921Z,1.77
2024-02-19T11:23:31.560Z,4.20
2024-02-19T11:25:59.894Z,5.27
2024-02-19T11:28:31.534Z,3.93
2024-02-19T11:31:02.554Z,3.60
2024-02-19T11:33:29.894Z,5.00
2024-02-19T11:35:59.772Z,6.20
2024-02-19T11:38:27.477Z,4.13
2024-02-19T11:40:54.473Z,3.37
2024-02-19T11:43:21.516Z,2.57
2024-02-19T11:45:48.448Z,2.60
2024-02-19T11:48:15.311Z,4.77
2024-02-19T11:50:45.153Z,2.23
2024-02-19T11:53:12.664Z,2.30
2024-02-19T11:55:40.118Z,3.47
2024-02-19T11:58:08.954Z,2.47
2024-02-19T12:00:36.686Z,4.33
2024-02-19T12:03:04.584Z,1.53
2024-02-19T12:05:31.903Z,2.40
2024-02-19T12:07:59.049Z,1.50
2024-02-19T12:10:25.921Z,2.73
2024-02-19T12:12:53.240Z,1.70
2024-02-19T12:15:23.045Z,1.33
2024-02-19T12:17:50.260Z,2.43
2024-02-19T12:20:18.358Z,2.50
2024-02-19T12:22:45.297Z,2.03
2024-02-19T12:25:14.908Z,1.20
2024-02-19T12:27:42.764Z,1.70
2024-02-19T12:30:10.269Z,1.23
2024-02-19T12:32:37.082Z,1.40
2024-02-19T12:35:04.462Z,2.40
2024-02-19T12:37:31.571Z,2.30
2024-02-19T12:39:58.583Z,1.60
2024-02-19T12:42:25.834Z,2.20
2024-02-19T12:44:52.616Z,2.93
2024-02-19T12:47:20.855Z,2.07
2024-02-19T12:49:47.883Z,1.80
2024-02-19T12:52:15.335Z,3.73
2024-02-19T12:54:47.833Z,2.97
2024-02-19T12:57:15.276Z,1.80
2024-02-19T12:59:42.024Z,3.73
2024-02-19T13:02:14.654Z,1.77
2024-02-19T13:04:41.695Z,2.37
2024-02-19T13:07:08.770Z,2.03
2024-02-19T13:09:35.972Z,1.60
2024-02-19T13:12:02.938Z,1.30
2024-02-19T13:14:30.798Z,5.33
2024-02-19T13:17:06.295Z,4.00
2024-02-19T13:19:39.572Z,2.47
2024-02-19T13:22:06.850Z,4.53
2024-02-19T13:24:33.766Z,2.33
2024-02-19T13:27:00.519Z,2.77
2024-02-19T13:29:27.300Z,1.57
2024-02-19T13:31:54.088Z,2.33
2024-02-19T13:34:22.132Z,2.53
2024-02-19T13:36:50.387Z,3.23
2024-02-19T13:39:22.038Z,2.70
2024-02-19T13:41:49.497Z,3.27
2024-02-19T13:44:16.782Z,2.80
2024-02-19T13:46:45.471Z,4.23
2024-02-19T13:49:12.692Z,2.30
2024-02-19T13:51:39.532Z,2.77
2024-02-19T13:54:07.470Z,1.93
2024-02-19T13:56:34.389Z,4.03
2024-02-19T13:59:01.131Z,2.77
2024-02-19T14:01:32.165Z,5.77
2024-02-19T14:04:00.661Z,1.50
2024-02-19T14:06:27.668Z,2.37
2024-02-19T14:08:54.412Z,3.33
2024-02-19T14:11:21.923Z,4.47
2024-02-19T14:13:57.558Z,2.40
2024-02-19T14:16:28.543Z,1.87
2024-02-19T14:18:56.160Z,7.37
2024-02-19T14:21:23.001Z,4.80
2024-02-19T14:23:50.503Z,3.30
2024-02-19T14:26:17.297Z,3.50
2024-02-19T14:28:44.171Z,2.40
2024-02-19T14:31:11.268Z,2.77
2024-02-19T14:33:39.113Z,1.50
2024-02-19T14:36:06.299Z,1.90
2024-02-19T14:38:33.074Z,2.47
2024-02-19T14:41:00.180Z,5.13
2024-02-19T14:43:27.013Z,4.83
2024-02-19T14:45:54.423Z,4.63
2024-02-19T14:48:21.407Z,2.17
2024-02-19T14:50:48.388Z,1.97
2024-02-19T14:53:15.134Z,2.07
2024-02-19T14:55:41.992Z,3.60
2024-02-19T14:58:10.037Z,2.20
2024-02-19T15:00:36.880Z,3.90
2024-02-19T15:03:06.135Z,1.70
2024-02-19T15:05:33.155Z,4.00
2024-02-19T15:08:00.159Z,1.97
2024-02-19T15:10:28.810Z,2.27
2024-02-19T15:12:57.018Z,3.10
2024-02-19T15:15:24.169Z,1.93
2024-02-19T15:17:51.197Z,2.30
2024-02-19T15:20:18.893Z,2.70
2024-02-19T15:22:47.508Z,3.37
2024-02-19T15:25:14.348Z,3.80
2024-02-19T15:27:41.158Z,3.37
2024-02-19T15:30:08.262Z,3.13
2024-02-19T15:32:35.140Z,1.87
2024-02-19T15:35:05.555Z,2.93
2024-02-19T15:37:33.408Z,3.27
2024-02-19T15:40:00.363Z,1.93
2024-02-19T15:42:27.231Z,2.73
2024-02-19T15:44:54.979Z,2.30
2024-02-19T15:47:23.612Z,2.53
2024-02-19T15:49:51.650Z,2.13
2024-02-19T15:52:20.524Z,2.73
2024-02-19T15:54:50.349Z,2.87
2024-02-19T15:57:17.030Z,2.33
2024-02-19T15:59:43.723Z,1.97
2024-02-19T16:02:10.572Z,2.47
2024-02-19T16:04:37.617Z,3.03
2024-02-19T16:07:07.353Z,1.67
2024-02-19T16:09:36.299Z,4.70
2024-02-19T16:12:03.952Z,2.83
2024-02-19T16:14:30.757Z,3.07
2024-02-19T16:16:57.454Z,2.13
2024-02-19T16:19:24.321Z,2.47
2024-02-19T16:21:51.172Z,2.70
2024-02-19T16:24:17.887Z,2.20
2024-02-19T16:26:44.617Z,3.17
2024-02-19T16:29:13.201Z,3.80
2024-02-19T16:31:40.235Z,3.07
2024-02-19T16:34:07.825Z,3.17
2024-02-19T16:36:34.808Z,3.07
2024-02-19T16:39:01.728Z,3.53
2024-02-19T16:41:28.609Z,3.07
2024-02-19T16:43:55.410Z,3.20
2024-02-19T16:46:23.848Z,4.67
2024-02-19T16:48:50.906Z,3.63
2024-02-19T16:51:18.234Z,3.97
2024-02-19T16:53:53.436Z,2.40
2024-02-19T16:56:22.508Z,2.37
2024-02-19T16:58:49.292Z,3.60
2024-02-19T17:01:18.475Z,2.70
2024-02-19T17:03:46.708Z,3.23
2024-02-19T17:06:14.331Z,2.50
2024-02-19T17:08:41.976Z,2.93
2024-02-19T17:11:09.045Z,3.40
2024-02-19T17:13:37.459Z,2.90
2024-02-19T17:16:04.862Z,4.43
2024-02-19T17:18:32.693Z,3.27
2024-02-19T17:20:59.824Z,3.63
2024-02-19T17:23:26.689Z,4.13
2024-02-19T17:25:53.455Z,5.03
2024-02-19T17:28:20.966Z,2.97
2024-02-19T17:30:48.037Z,3.13
2024-02-19T17:33:15.210Z,3.20
2024-02-19T17:35:44.758Z,2.50
2024-02-19T17:38:12.871Z,2.80
2024-02-19T17:40:39.625Z,4.13
2024-02-19T17:43:06.506Z,3.13
2024-02-19T17:45:33.393Z,4.70
2024-02-19T17:48:00.234Z,3.83
2024-02-19T17:50:27.075Z,4.20
2024-02-19T17:52:54.162Z,4.60
2024-02-19T17:55:21.269Z,5.07
2024-02-19T17:57:49.094Z,3.33
2024-02-19T18:00:16.379Z,3.03
2024-02-19T18:02:44.924Z,5.33
2024-02-19T18:05:11.758Z,5.47
2024-02-19T18:07:38.715Z,4.83
2024-02-19T18:10:05.801Z,7.03
2024-02-19T18:12:32.527Z,3.97
2024-02-19T18:14:59.827Z,3.67
2024-02-19T18:17:27.581Z,5.00
2024-02-19T18:19:55.565Z,4.57
2024-02-19T18:22:22.992Z,4.17
2024-02-19T18:24:51.877Z,6.60
2024-02-19T18:27:19.233Z,8.17
2024-02-19T18:29:46.151Z,10.60
2024-02-19T18:32:16.251Z,6.37
2024-02-19T18:34:47.539Z,27.30
2024-02-19T18:37:14.856Z,12.23
2024-02-19T18:39:42.250Z,7.83
2024-02-19T18:42:11.227Z,3.67
2024-02-19T18:44:38.373Z,5.60
2024-02-19T18:47:05.378Z,4.57
2024-02-19T18:49:37.009Z,4.47
2024-02-19T18:52:04.287Z,5.63
2024-02-19T18:54:32.692Z,5.83
2024-02-19T18:57:04.668Z,4.83
2024-02-19T18:59:32.275Z,4.60
2024-02-19T19:02:02.201Z,5.67
2024-02-19T19:04:29.385Z,4.23
2024-02-19T19:06:56.336Z,3.93
2024-02-19T19:09:23.500Z,4.63
2024-02-19T19:11:50.186Z,4.73
2024-02-19T19:14:16.875Z,4.03
2024-02-19T19:16:44.145Z,4.30
2024-02-19T19:19:11.251Z,5.20
2024-02-19T19:21:38.902Z,7.07
2024-02-19T19:24:09.131Z,4.53
2024-02-19T19:26:37.503Z,6.67
2024-02-19T19:29:04.819Z,7.50
2024-02-19T19:31:33.250Z,7.43
2024-02-19T19:34:00.825Z,6.20
2024-02-19T19:36:27.951Z,4.77
2024-02-19T19:38:54.747Z,6.70
2024-02-19T19:41:21.515Z,6.10
2024-02-19T19:43:50.495Z,5.47
2024-02-19T19:46:17.955Z,6.43
2024-02-19T19:48:46.203Z,6.83
2024-02-19T19:51:13.265Z,7.70
2024-02-19T19:53:40.095Z,5.67
2024-02-19T19:56:08.104Z,7.87
2024-02-19T19:58:36.919Z,6.30
2024-02-19T20:01:05.286Z,6.63
2024-02-19T20:03:32.213Z,7.43
2024-02-19T20:05:59.004Z,6.57
2024-02-19T20:08:26.678Z,6.27
2024-02-19T20:10:54.684Z,5.40
2024-02-19T20:13:21.495Z,5.93
2024-02-19T20:15:48.336Z,8.13
2024-02-19T20:18:15.403Z,6.03
2024-02-19T20:20:42.502Z,5.53
2024-02-19T20:23:09.389Z,8.40
2024-02-19T20:25:36.244Z,7.73
2024-02-19T20:28:05.390Z,6.57
2024-02-19T20:30:32.252Z,7.87
2024-02-19T20:32:59.261Z,6.30
2024-02-19T20:35:27.004Z,8.07
2024-02-19T20:37:53.906Z,9.17
2024-02-19T20:40:20.712Z,12.87
2024-02-19T20:42:53.240Z,9.80
2024-02-19T20:45:20.101Z,13.63
2024-02-19T20:47:46.875Z,13.20
2024-02-19T20:50:14.355Z,10.70
2024-02-19T20:52:42.325Z,10.37
2024-02-19T20:55:11.035Z,11.77
2024-02-19T20:57:38.950Z,9.73
2024-02-19T21:00:10.081Z,10.23
2024-02-19T21:02:40.190Z,14.03
2024-02-19T21:05:08.910Z,15.43
2024-02-19T21:07:37.691Z,10.60
2024-02-19T21:10:05.468Z,10.87
2024-02-19T21:12:32.787Z,8.07
2024-02-19T21:14:59.588Z,6.07
2024-02-19T21:17:29.191Z,6.97
2024-02-19T21:19:57.575Z,9.63
2024-02-19T21:22:28.132Z,7.57
2024-02-19T21:24:58.929Z,5.83
2024-02-19T21:27:26.023Z,4.93
2024-02-19T21:29:52.959Z,8.90
2024-02-19T21:32:20.558Z,5.40
2024-02-19T21:34:48.206Z,6.33
2024-02-19T21:37:15.114Z,7.23
2024-02-19T21:39:42.427Z,6.57
2024-02-19T21:42:09.859Z,9.47
2024-02-19T21:44:36.601Z,6.03
2024-02-19T21:47:03.999Z,7.33
2024-02-19T21:49:30.868Z,7.20
2024-02-19T21:51:57.869Z,10.57
2024-02-19T21:54:24.719Z,7.73
2024-02-19T21:56:51.505Z,7.03
2024-02-19T21:59:18.509Z,7.70
2024-02-19T22:01:46.063Z,8.10
2024-02-19T22:04:13.103Z,5.53
2024-02-19T22:06:41.309Z,7.90
2024-02-19T22:09:08.263Z,7.83
2024-02-19T22:11:36.640Z,6.57
2024-02-19T22:14:04.061Z,6.37
2024-02-19T22:16:31.009Z,5.47
2024-02-19T22:18:57.885Z,5.43
2024-02-19T22:21:25.292Z,6.67
2024-02-19T22:23:53.118Z,7.27
2024-02-19T22:26:19.859Z,7.57
2024-02-19T22:28:46.624Z,7.13
2024-02-19T22:31:13.363Z,6.67
2024-02-19T22:33:40.146Z,7.90
2024-02-19T22:36:06.972Z,9.73
2024-02-19T22:38:33.677Z,5.97
2024-02-19T22:41:00.447Z,7.03
2024-02-19T22:43:27.552Z,6.67
2024-02-19T22:45:54.551Z,6.30
2024-02-19T22:48:21.454Z,8.00
2024-02-19T22:50:48.337Z,7.30
2024-02-19T22:53:15.508Z,5.97
2024-02-19T22:55:42.430Z,7.13
2024-02-19T22:58:09.463Z,5.77
2024-02-19T23:00:36.922Z,5.17
2024-02-19T23:03:04.997Z,5.80
2024-02-19T23:05:32.517Z,7.10
2024-02-19T23:08:00.298Z,8.10
2024-02-19T23:10:27.358Z,7.30
2024-02-19T23:12:54.295Z,6.83
2024-02-19T23:15:25.734Z,7.73
2024-02-19T23:17:56.044Z,11.80
2024-02-19T23:20:23.776Z,18.10
2024-02-19T23:22:50.597Z,21.77
2024-02-19T23:25:17.398Z,18.37
2024-02-19T23:27:44.214Z,14.50
2024-02-19T23:30:11.169Z,8.30
2024-02-19T23:32:38.204Z,6.23
2024-02-19T23:35:06.136Z,6.27
2024-02-19T23:37:33.512Z,9.03
2024-02-19T23:40:00.716Z,7.23
2024-02-19T23:42:27.842Z,6.57
2024-02-19T23:44:54.512Z,6.67
2024-02-19T23:47:21.242Z,6.43
2024-02-19T23:49:48.464Z,5.77
2024-02-19T23:52:15.362Z,4.57
2024-02-19T23:54:42.262Z,4.10
2024-02-19T23:57:09.007Z,5.63
2024-02-19T23:59:35.868Z,6.67
